KVBG/VBG METAR and TAF weather

Enter ICAO airport designator
Station Type Date Time Source
KVBG METAR 2020/01/20 12:58 UTC NOAA

KVBG 201258Z AUTO 24007KT 8SM FEW008 SCT012 SCT120 11/08 A3004 RMK AO2 SLP176 T01120081 $


Station Type Date Time Source
KVBG Decoded METAR 2020/01/20 12:58 UTC NOAA

Lompoc, Vandenberg Air Force Base, CA, United States (KVBG) 34-43-46N 120-34-36W 121M
Jan 20, 2020 - 07:58 AM EST / 2020.01.20 1258 UTC
Wind: from the WSW (240 degrees) at 8 MPH (7 KT):0
Visibility: 8 mile(s):0
Sky conditions: partly cloudy
Temperature: 52.2 F (11.2 C)
Dew Point: 46.6 F (8.1 C)
Relative Humidity: 81%
Pressure (altimeter): 30.04 in. Hg (1017 hPa)
ob: KVBG 201258Z AUTO 24007KT 8SM FEW008 SCT012 SCT120 11/08 A3004 RMK AO2 SLP176 T01120081
cycle: 13

Station Type Date Time Source
KVBG TAF 2020/01/17 00:03 UTC NOAA

TAF
AMD KVBG 170004Z 1700/1805 15015G20KT 3200 -SHRA BKN004 OVC020 610606 510003 QNH2991INS
TEMPO 1700/1701 15025G35KT 8000 -SHRA BR SCT006 BKN010 OVC020
TEMPO 1701/1704 4800 SHRA BR SCT006 OVC010
BECMG 1704/1705 32009KT 9999 VCSH FEW006 SCT010 BKN025 QNH2992INS
BECMG 1709/1710 34009KT 9999 NSW BKN030 QNH2996INS
BECMG 1717/1718 34012KT 9999 FEW030 FEW250 QNH2999INS
BECMG 1802/1803 36009KT 9999 BKN020 QNH3001INS TX15/1720Z TN04/1713Z LAST NO
AMDS AFT 1701 NEXT 2115

Example: see airport list